createdAt,value
2022-08-17T00:04:20.181Z,99470.78
2022-08-17T00:09:23.028Z,99472.72
2022-08-17T00:14:25.997Z,99471.91
2022-08-17T00:19:28.806Z,99478.38
2022-08-17T00:24:32.348Z,99482.09
2022-08-17T00:29:35.270Z,99483.38
2022-08-17T00:34:38.966Z,99483.00
2022-08-17T00:39:41.902Z,99484.53
2022-08-17T00:44:45.735Z,99488.16
2022-08-17T00:49:48.659Z,99485.00
2022-08-17T00:54:55.358Z,99494.56
2022-08-17T01:00:15.296Z,99497.34
2022-08-17T01:05:27.785Z,99496.09
2022-08-17T01:10:58.766Z,99498.25
2022-08-17T01:16:17.472Z,99495.38
2022-08-17T01:21:44.665Z,99496.00
2022-08-17T01:26:48.356Z,99501.72
2022-08-17T01:32:00.336Z,99507.47
2022-08-17T01:37:03.611Z,99506.16
2022-08-17T01:42:36.683Z,99506.88
2022-08-17T01:47:40.260Z,99505.72
2022-08-17T01:52:54.208Z,99495.94
2022-08-17T01:57:57.206Z,99499.19
2022-08-17T02:03:01.808Z,99502.34
2022-08-17T02:08:04.962Z,99504.72
2022-08-17T02:13:08.693Z,99500.53
2022-08-17T02:18:13.337Z,99491.75
2022-08-17T02:23:16.305Z,99495.06
2022-08-17T02:28:19.929Z,99489.66
2022-08-17T02:33:23.142Z,99475.28
2022-08-17T02:38:45.171Z,99479.06
2022-08-17T02:43:47.977Z,99491.91
2022-08-17T02:48:51.280Z,99501.88
2022-08-17T02:54:05.327Z,99499.06
2022-08-17T02:59:17.114Z,99502.97
2022-08-17T03:04:20.020Z,99497.97
2022-08-17T03:09:23.183Z,99499.34
2022-08-17T03:14:26.466Z,99498.31
2022-08-17T03:19:29.280Z,99502.88
2022-08-17T03:24:32.104Z,99503.94
2022-08-17T03:29:35.004Z,99510.13
2022-08-17T03:34:38.062Z,99513.31
2022-08-17T03:39:40.990Z,99513.44
2022-08-17T03:44:48.341Z,99521.13
2022-08-17T03:50:10.545Z,99519.50
2022-08-17T03:55:36.193Z,99533.41
2022-08-17T04:00:45.466Z,99547.09
2022-08-17T04:05:48.370Z,99537.41
2022-08-17T04:10:51.319Z,99538.47
2022-08-17T04:15:54.856Z,99544.41
2022-08-17T04:20:57.793Z,99543.72
2022-08-17T04:26:01.702Z,99552.47
2022-08-17T04:31:06.194Z,99544.28
2022-08-17T04:36:10.901Z,99553.28
2022-08-17T04:41:33.877Z,99569.44
2022-08-17T04:46:37.068Z,99559.72
2022-08-17T04:51:56.280Z,99561.59
2022-08-17T04:56:59.817Z,99555.91
2022-08-17T05:02:02.685Z,99555.41
2022-08-17T05:07:05.754Z,99561.19
2022-08-17T05:12:09.073Z,99559.94
2022-08-17T05:17:11.949Z,99561.97
2022-08-17T05:22:15.182Z,99562.63
2022-08-17T05:27:18.792Z,99563.03
2022-08-17T05:32:39.284Z,99556.38
2022-08-17T05:37:43.205Z,99564.91
2022-08-17T05:42:46.167Z,99564.09
2022-08-17T05:47:48.996Z,99562.38
2022-08-17T05:53:07.440Z,99582.88
2022-08-17T05:59:13.857Z,99575.91
2022-08-17T06:04:57.539Z,99582.19
2022-08-17T06:10:35.823Z,99584.72
2022-08-17T06:16:33.191Z,99584.81
2022-08-17T06:21:48.962Z,99591.41
2022-08-17T06:26:54.654Z,99589.84
2022-08-17T06:31:58.125Z,99589.72
2022-08-17T06:37:33.115Z,99584.25
2022-08-17T06:42:55.018Z,99581.19
2022-08-17T06:48:53.964Z,99581.09
2022-08-17T06:54:18.788Z,99574.22
2022-08-17T06:59:54.488Z,99577.00
2022-08-17T07:04:59.131Z,99572.47
2022-08-17T07:10:02.525Z,99567.34
2022-08-17T07:15:20.242Z,99575.19
2022-08-17T07:20:23.194Z,99574.59
2022-08-17T07:25:26.439Z,99570.44
2022-08-17T07:30:47.004Z,99562.16
2022-08-17T07:35:50.875Z,99566.91
2022-08-17T07:41:03.118Z,99567.31
2022-08-17T07:47:11.677Z,99565.78
2022-08-17T07:52:50.770Z,99563.94
2022-08-17T07:57:57.488Z,99559.91
2022-08-17T08:03:13.697Z,99563.44
2022-08-17T08:08:43.748Z,99565.84
2022-08-17T08:13:46.661Z,99556.56
2022-08-17T08:18:56.895Z,99555.31
2022-08-17T08:24:30.139Z,99558.19
2022-08-17T08:30:07.910Z,99564.13
2022-08-17T08:35:39.021Z,99555.28
2022-08-17T08:41:21.763Z,99558.19
2022-08-17T08:46:42.254Z,99552.84
2022-08-17T08:51:55.754Z,99561.97
2022-08-17T08:57:31.005Z,99549.19
2022-08-17T09:03:52.436Z,99543.00
2022-08-17T09:09:34.339Z,99540.94
2022-08-17T09:15:09.457Z,99532.72
2022-08-17T09:20:27.519Z,99533.56
2022-08-17T09:25:45.576Z,99542.22
2022-08-17T09:30:55.335Z,99530.38
2022-08-17T09:36:44.180Z,99523.22
2022-08-17T09:41:59.555Z,99522.63
2022-08-17T09:47:45.569Z,99511.00
2022-08-17T09:52:54.707Z,99513.91
2022-08-17T09:58:56.695Z,99497.00
2022-08-17T10:04:20.321Z,99499.94
2022-08-17T10:09:49.148Z,99501.50
2022-08-17T10:15:34.323Z,99504.38
2022-08-17T10:21:29.620Z,99510.66
2022-08-17T10:26:46.175Z,99504.78
2022-08-17T10:32:05.462Z,99495.53
2022-08-17T10:37:25.215Z,99487.03
2022-08-17T10:42:55.860Z,99500.16
2022-08-17T10:48:20.582Z,99492.44
2022-08-17T10:53:32.394Z,99501.22
2022-08-17T10:59:00.279Z,99492.78
2022-08-17T11:04:50.048Z,99489.16
2022-08-17T11:10:20.714Z,99490.25
2022-08-17T11:15:32.117Z,99480.03
2022-08-17T11:21:39.296Z,99489.25
2022-08-17T11:26:58.913Z,99481.66
2022-08-17T11:32:27.097Z,99471.22
2022-08-17T11:38:05.364Z,99460.53
2022-08-17T11:43:28.489Z,99459.69
2022-08-17T11:49:14.092Z,99466.03
2022-08-17T11:54:34.458Z,99459.44
2022-08-17T11:59:40.026Z,99462.44
2022-08-17T12:05:16.983Z,99455.22
2022-08-17T12:10:31.649Z,99455.56
2022-08-17T12:15:49.637Z,99449.00
2022-08-17T12:21:53.898Z,99434.63
2022-08-17T12:27:01.834Z,99440.09
2022-08-17T12:32:07.201Z,99447.59
2022-08-17T12:37:35.287Z,99437.91
2022-08-17T12:42:39.442Z,99433.56
2022-08-17T12:47:42.498Z,99435.53
2022-08-17T12:52:45.796Z,99426.13
2022-08-17T12:57:59.777Z,99419.84
2022-08-17T13:03:26.894Z,99415.00
2022-08-17T13:08:48.141Z,99420.22
2022-08-17T13:13:56.553Z,99414.41
2022-08-17T13:19:39.923Z,99425.13
2022-08-17T13:25:03.847Z,99417.16
2022-08-17T13:30:12.869Z,99422.97
2022-08-17T13:35:41.081Z,99420.41
2022-08-17T13:40:53.229Z,99410.44
2022-08-17T13:46:10.957Z,99420.28
2022-08-17T13:51:23.478Z,99411.56
2022-08-17T13:56:39.177Z,99407.75
2022-08-17T14:01:52.827Z,99411.47
2022-08-17T14:07:08.851Z,99408.97
2022-08-17T14:12:16.151Z,99411.41
2022-08-17T14:17:19.387Z,99414.91
2022-08-17T14:22:30.631Z,99402.75
2022-08-17T14:27:41.582Z,99413.94
2022-08-17T14:33:00.391Z,99401.41
2022-08-17T14:38:04.038Z,99404.03
2022-08-17T14:43:06.985Z,99402.44
2022-08-17T14:48:10.241Z,99404.09
2022-08-17T14:53:16.334Z,99411.16
2022-08-17T14:58:19.526Z,99404.75
2022-08-17T15:03:23.526Z,99403.81
2022-08-17T15:08:26.678Z,99410.72
2022-08-17T15:13:30.785Z,99404.53
2022-08-17T15:18:33.579Z,99404.75
2022-08-17T15:23:37.505Z,99403.00
2022-08-17T15:28:40.490Z,99411.81
2022-08-17T15:33:43.324Z,99414.72
2022-08-17T15:38:47.192Z,99407.06
2022-08-17T15:43:50.344Z,99414.75
2022-08-17T15:48:58.973Z,99413.19
2022-08-17T15:54:22.106Z,99411.41
2022-08-17T15:59:26.077Z,99410.91
2022-08-17T16:04:30.929Z,99412.00
2022-08-17T16:09:34.842Z,99410.66
2022-08-17T16:14:37.994Z,99412.53
2022-08-17T16:19:41.838Z,99411.06
2022-08-17T16:24:56.965Z,99422.34
2022-08-17T16:30:01.169Z,99410.53
2022-08-17T16:35:12.103Z,99412.66
2022-08-17T16:40:17.655Z,99409.25
2022-08-17T16:45:28.256Z,99408.78
2022-08-17T16:50:32.438Z,99417.97
2022-08-17T16:55:35.849Z,99419.03
2022-08-17T17:00:40.065Z,99414.53
2022-08-17T17:06:14.418Z,99430.53
2022-08-17T17:11:33.612Z,99424.00
2022-08-17T17:16:45.826Z,99430.31
2022-08-17T17:22:14.066Z,99432.22
2022-08-17T17:27:37.313Z,99435.41
2022-08-17T17:33:03.013Z,99439.97
2022-08-17T17:38:15.445Z,99446.00
2022-08-17T17:43:38.900Z,99455.81
2022-08-17T17:48:43.238Z,99459.66
2022-08-17T17:54:07.223Z,99455.72
2022-08-17T17:59:38.310Z,99464.47
2022-08-17T18:04:59.354Z,99452.41
2022-08-17T18:10:31.796Z,99467.91
2022-08-17T18:15:51.155Z,99467.09
2022-08-17T18:21:07.234Z,99477.38
2022-08-17T18:26:10.187Z,99479.66
2022-08-17T18:31:21.639Z,99481.00
2022-08-17T18:36:39.915Z,99497.13
2022-08-17T18:41:54.695Z,99500.69
2022-08-17T18:47:28.493Z,99499.88
2022-08-17T18:52:34.017Z,99502.81
2022-08-17T18:57:50.523Z,99502.72
2022-08-17T19:03:00.128Z,99497.34
2022-08-17T19:08:24.951Z,99500.41
2022-08-17T19:13:31.292Z,99505.03
2022-08-17T19:18:56.166Z,99499.38
2022-08-17T19:24:11.560Z,99508.97
2022-08-17T19:30:02.686Z,99518.16
2022-08-17T19:35:16.641Z,99515.50
2022-08-17T19:41:01.952Z,99526.03
2022-08-17T19:46:26.454Z,99521.97
2022-08-17T19:51:57.161Z,99524.72
2022-08-17T19:57:13.249Z,99527.91
2022-08-17T20:02:37.577Z,99517.88
2022-08-17T20:07:56.418Z,99521.31
2022-08-17T20:13:11.701Z,99527.53
2022-08-17T20:18:36.836Z,99518.22
2022-08-17T20:24:29.949Z,99518.75
2022-08-17T20:29:54.959Z,99518.41
2022-08-17T20:35:26.942Z,99517.88
2022-08-17T20:40:33.801Z,99525.13
2022-08-17T20:46:02.566Z,99518.75
2022-08-17T20:51:28.738Z,99524.94
2022-08-17T20:56:43.641Z,99523.94
2022-08-17T21:02:18.702Z,99531.09
2022-08-17T21:07:43.252Z,99532.75
2022-08-17T21:13:07.790Z,99536.38
2022-08-17T21:18:38.873Z,99532.28
2022-08-17T21:24:04.853Z,99538.81
2022-08-17T21:29:30.831Z,99546.72
2022-08-17T21:34:37.917Z,99544.28
2022-08-17T21:39:41.676Z,99545.66
2022-08-17T21:44:50.743Z,99548.63
2022-08-17T21:49:56.447Z,99548.88
2022-08-17T21:55:02.544Z,99549.13
2022-08-17T22:00:17.259Z,99550.44
2022-08-17T22:05:39.622Z,99557.19
2022-08-17T22:10:46.247Z,99563.69
2022-08-17T22:16:04.380Z,99576.63
2022-08-17T22:21:19.380Z,99573.09
2022-08-17T22:26:52.675Z,99573.34
2022-08-17T22:31:57.546Z,99589.06
2022-08-17T22:37:27.381Z,99589.59
2022-08-17T22:42:31.251Z,99587.97
2022-08-17T22:47:41.204Z,99623.97
2022-08-17T22:53:04.019Z,99641.25
2022-08-17T22:58:36.894Z,99651.47
2022-08-17T23:03:56.913Z,99646.56
2022-08-17T23:09:03.112Z,99650.25
2022-08-17T23:14:06.037Z,99669.19
2022-08-17T23:19:12.477Z,99668.59
2022-08-17T23:24:23.005Z,99662.34
2022-08-17T23:29:29.483Z,99674.31
2022-08-17T23:34:32.980Z,99655.91
2022-08-17T23:39:36.550Z,99652.69
2022-08-17T23:44:41.683Z,99647.81
2022-08-17T23:49:44.499Z,99646.19
2022-08-17T23:54:49.299Z,99647.25
2022-08-17T23:59:52.342Z,99638.00
